Weather at Gibraltar Airport

Public forecast

Using degrees Celsius for public forecast. Weather courtesy of forecast.io.

Current aviation weather report (METAR) for Gibraltar Airport

Retrieved 2020/11/28 20:50 UTC (58 minutes ago):

LXGB 282050Z AUTO 23009KT 7000 -RA FEW016/// BKN050/// 17/14 Q1011

Aviation forecast (TAF) for Gibraltar Airport

Forecast is more than 12 hours old.

Retrieved 2020/07/15 18:37 UTC (5 months ago):

TAF LXGB 150530Z 1418/1523 CNL